Time;durP1;ratioP1;P1;durP2;ratioP2;P2;SDS_P1;SDS_P2;PMS_P1;PMS_P2;Temp;Humidity;BMP_temperature;BMP_pressure;BME280_temperature;BME280_humidity;BME280_pressure;Samples;Min_cycle;Max_cycle;Signal;HPM_P1;HPM_P2
2022/06/07 04:00:26;;;;;;;1.70;1.60;;;14.60;99.90;;;;;;5978924;23;20424;31
2022/06/07 04:02:53;;;;;;;2.03;1.93;;;14.70;99.90;;;;;;4935405;29;20473;-66
2022/06/07 04:05:20;;;;;;;2.30;1.80;;;14.70;99.90;;;;;;4939405;29;20839;-69
2022/06/07 04:10:31;;;;;;;2.10;2.00;;;14.80;99.90;;;;;;4939223;29;20599;-66
2022/06/07 04:12:58;;;;;;;1.53;1.53;;;14.80;99.90;;;;;;4944885;28;20472;-67
2022/06/07 04:15:24;;;;;;;2.20;2.20;;;14.80;99.90;;;;;;4959322;28;20809;-67
2022/06/07 04:17:53;;;;;;;1.70;1.70;;;14.90;99.90;;;;;;4953428;28;20465;-66
2022/06/07 04:20:20;;;;;;;2.07;2.07;;;14.90;99.90;;;;;;4943082;23;20506;-67
2022/06/07 04:22:47;;;;;;;1.77;1.77;;;14.90;99.90;;;;;;4919683;29;20475;-67
2022/06/07 04:25:14;;;;;;;1.93;1.93;;;14.90;99.90;;;;;;4927021;29;20470;-67
2022/06/07 04:27:40;;;;;;;1.60;1.60;;;15.00;99.90;;;;;;4931090;29;20565;-67
2022/06/07 04:30:08;;;;;;;1.80;1.80;;;15.00;99.90;;;;;;4932014;29;20490;-68
2022/06/07 04:32:35;;;;;;;2.73;2.53;;;15.00;99.90;;;;;;4934781;29;20805;-67
2022/06/07 04:35:04;;;;;;;2.27;2.20;;;15.10;99.90;;;;;;4920253;29;20482;-67
2022/06/07 04:37:30;;;;;;;2.07;2.07;;;15.20;99.90;;;;;;4927877;29;20469;-68
2022/06/07 04:39:57;;;;;;;1.83;1.83;;;15.20;99.90;;;;;;4919258;29;20499;-68
2022/06/07 04:42:24;;;;;;;2.00;1.90;;;15.20;99.90;;;;;;4928094;29;20977;-68
2022/06/07 04:44:51;;;;;;;2.30;2.20;;;15.20;99.90;;;;;;4920056;29;20859;-67
2022/06/07 04:47:18;;;;;;;2.00;2.00;;;15.30;99.90;;;;;;4928384;29;20461;-67
2022/06/07 04:49:45;;;;;;;2.10;2.10;;;15.30;99.90;;;;;;4919292;29;20831;-68
2022/06/07 04:52:13;;;;;;;1.90;1.90;;;15.40;99.90;;;;;;4928340;29;20493;-68
2022/06/07 04:54:40;;;;;;;1.87;1.87;;;15.50;99.90;;;;;;4920601;29;20955;-68
2022/06/07 04:57:07;;;;;;;3.00;2.90;;;15.50;99.90;;;;;;4926396;29;20814;-68
2022/06/07 04:59:34;;;;;;;2.40;2.40;;;15.60;99.90;;;;;;4920531;29;20521;-68
2022/06/07 05:02:00;;;;;;;2.47;2.40;;;15.50;99.90;;;;;;4923644;29;20474;-67
2022/06/07 05:04:27;;;;;;;2.30;2.30;;;15.60;99.90;;;;;;4928035;29;20966;-67
2022/06/07 05:06:54;;;;;;;2.07;2.07;;;15.60;99.90;;;;;;4931703;29;20485;-68
2022/06/07 05:09:24;;;;;;;3.40;3.10;;;15.70;99.90;;;;;;4931342;29;20489;-68
2022/06/07 05:11:52;;;;;;;2.57;2.57;;;15.70;99.90;;;;;;4923251;29;20597;-68
2022/06/07 05:14:20;;;;;;;3.20;3.00;;;15.70;99.90;;;;;;4923404;29;20570;-68
2022/06/07 05:16:48;;;;;;;3.40;3.23;;;15.80;99.90;;;;;;4919751;29;20466;-67
2022/06/07 05:19:15;;;;;;;3.33;3.23;;;15.80;99.90;;;;;;4916020;29;20578;-67
2022/06/07 05:21:42;;;;;;;4.13;3.93;;;15.80;99.90;;;;;;4918118;29;20466;-67
2022/06/07 05:24:10;;;;;;;4.00;3.70;;;15.80;99.90;;;;;;4921294;29;20462;-67
2022/06/07 05:26:45;;;;;;;4.20;4.00;;;15.70;99.90;;;;;;4919314;29;20870;-67
2022/06/07 05:29:18;;;;;;;4.10;3.90;;;15.60;99.90;;;;;;4931552;29;20466;-67
2022/06/07 05:31:44;;;;;;;4.87;4.50;;;15.70;99.90;;;;;;4918244;29;20513;-67
2022/06/07 05:34:11;;;;;;;4.23;3.93;;;15.60;99.90;;;;;;4935162;29;20462;-67
2022/06/07 05:36:38;;;;;;;7.70;4.83;;;15.60;99.90;;;;;;4921797;29;20481;-67
2022/06/07 05:39:05;;;;;;;4.43;4.23;;;15.50;99.90;;;;;;4917878;29;20837;-69
2022/06/07 05:41:32;;;;;;;4.97;4.57;;;15.40;99.90;;;;;;4913386;29;20519;-70
2022/06/07 05:44:01;;;;;;;5.30;4.80;;;15.40;99.90;;;;;;4897754;29;20519;-70
2022/06/07 05:46:27;;;;;;;4.67;4.40;;;15.50;99.90;;;;;;4917947;29;20470;-70
2022/06/07 05:48:54;;;;;;;5.10;4.80;;;15.40;99.90;;;;;;4925042;29;20470;-70
2022/06/07 05:51:21;;;;;;;5.37;4.87;;;15.40;99.90;;;;;;4906113;29;20487;-71
2022/06/07 05:53:47;;;;;;;4.70;4.40;;;15.40;99.90;;;;;;4899221;29;20471;-71
2022/06/07 05:56:15;;;;;;;5.10;4.80;;;15.30;99.90;;;;;;4916921;29;20474;-70
2022/06/07 05:58:42;;;;;;;4.93;4.67;;;15.40;99.90;;;;;;4935837;29;20474;-69
2022/06/07 06:01:10;;;;;;;4.80;4.60;;;15.40;99.90;;;;;;4920040;29;20517;-72
2022/06/07 06:03:40;;;;;;;5.00;4.70;;;15.40;99.90;;;;;;4909236;29;20478;-71
2022/06/07 06:06:08;;;;;;;5.77;5.43;;;15.40;99.90;;;;;;4922427;29;20577;-69
2022/06/07 06:11:21;;;;;;;5.00;4.80;;;15.40;99.90;;;;;;4913910;29;20534;-69
2022/06/07 06:13:48;;;;;;;4.90;4.60;;;15.40;99.90;;;;;;4921913;29;20470;-69
2022/06/07 06:16:18;;;;;;;5.03;4.67;;;15.50;99.90;;;;;;4923659;29;20471;-68
2022/06/07 06:18:46;;;;;;;5.80;5.40;;;15.60;99.90;;;;;;4916049;29;20466;-70
2022/06/07 06:21:13;;;;;;;5.50;5.10;;;15.70;99.90;;;;;;4910849;29;20530;-69
2022/06/07 06:23:40;;;;;;;5.07;4.77;;;15.70;99.90;;;;;;4917909;29;20493;-70
2022/06/07 06:26:08;;;;;;;5.63;5.33;;;15.80;99.90;;;;;;4931368;29;20476;-69
2022/06/07 06:28:35;;;;;;;4.77;4.47;;;15.80;99.90;;;;;;4921088;29;20529;-70
2022/06/07 06:31:02;;;;;;;5.43;5.10;;;15.90;99.90;;;;;;4919283;29;20824;-69
2022/06/07 06:33:30;;;;;;;6.10;5.50;;;16.00;99.90;;;;;;4916018;29;20987;-70
2022/06/07 06:35:57;;;;;;;6.03;5.63;;;16.10;99.90;;;;;;4910855;29;20475;-69
2022/06/07 06:38:24;;;;;;;5.67;5.27;;;16.20;99.90;;;;;;4914059;29;20470;-70
2022/06/07 06:40:51;;;;;;;5.70;5.30;;;16.20;99.90;;;;;;4914377;29;20581;-69
2022/06/07 06:43:20;;;;;;;5.37;4.90;;;16.30;99.90;;;;;;4914844;29;20572;-70
2022/06/07 06:45:47;;;;;;;6.40;5.83;;;16.40;99.90;;;;;;4907979;29;20486;-68
2022/06/07 06:48:14;;;;;;;6.77;5.50;;;16.50;99.90;;;;;;4914793;29;20848;-68
2022/06/07 06:50:42;;;;;;;5.10;4.70;;;16.50;99.90;;;;;;4915787;29;20493;-69
2022/06/07 06:53:09;;;;;;;4.63;4.30;;;16.60;99.90;;;;;;4914072;29;20491;-68
2022/06/07 06:55:36;;;;;;;5.00;4.67;;;16.70;99.90;;;;;;4922953;29;20574;-69
2022/06/07 06:58:03;;;;;;;4.30;4.10;;;16.70;99.90;;;;;;4911429;29;20508;-71
2022/06/07 07:00:29;;;;;;;3.50;3.40;;;16.90;99.90;;;;;;4913347;29;20497;-69
2022/06/07 07:02:56;;;;;;;3.80;3.70;;;17.00;99.90;;;;;;4915628;29;20824;-70
2022/06/07 07:05:24;;;;;;;5.30;4.93;;;17.20;99.90;;;;;;4923684;29;20447;-68
2022/06/07 07:07:53;;;;;;;3.90;3.77;;;17.40;99.90;;;;;;4908929;29;20924;-69
2022/06/07 07:10:20;;;;;;;3.67;3.47;;;17.50;99.90;;;;;;4896601;29;20559;-69
2022/06/07 07:12:46;;;;;;;3.53;3.33;;;17.60;99.90;;;;;;4919739;29;20490;-69
2022/06/07 07:15:13;;;;;;;3.60;3.40;;;17.60;99.90;;;;;;4921593;29;20570;-68
2022/06/07 07:17:40;;;;;;;4.03;3.47;;;17.60;99.90;;;;;;4924842;29;20463;-69
2022/06/07 07:20:08;;;;;;;4.13;3.93;;;17.60;99.90;;;;;;4928663;29;20501;-69
2022/06/07 07:22:36;;;;;;;3.53;3.07;;;17.70;99.90;;;;;;4931837;29;20474;-69
2022/06/07 07:25:05;;;;;;;3.47;3.20;;;17.80;99.90;;;;;;4926359;29;20474;-69
2022/06/07 07:27:32;;;;;;;2.97;2.77;;;17.80;99.90;;;;;;4920154;29;20953;-68
2022/06/07 07:30:00;;;;;;;3.00;2.70;;;18.00;99.90;;;;;;4920837;29;20513;-69
2022/06/07 07:32:27;;;;;;;2.90;2.80;;;18.10;99.90;;;;;;4914029;29;21031;-71
2022/06/07 07:34:54;;;;;;;3.00;2.80;;;18.20;99.90;;;;;;4919111;29;20463;-69
2022/06/07 07:37:21;;;;;;;2.77;2.47;;;18.20;99.90;;;;;;4921542;29;20572;-70
2022/06/07 07:39:48;;;;;;;3.93;2.70;;;18.30;99.90;;;;;;4916927;29;20485;-70
2022/06/07 07:42:16;;;;;;;2.37;2.37;;;18.50;99.90;;;;;;4920007;29;20502;-69
2022/06/07 07:44:43;;;;;;;2.23;2.13;;;18.80;99.90;;;;;;4915867;29;20471;-69
2022/06/07 07:47:10;;;;;;;3.10;3.00;;;18.90;99.90;;;;;;4914144;29;20908;-68
2022/06/07 07:49:37;;;;;;;2.37;2.27;;;18.90;99.90;;;;;;4928704;29;20486;-69
2022/06/07 07:52:04;;;;;;;2.97;2.77;;;19.00;99.90;;;;;;4913687;29;20493;-68
2022/06/07 07:54:31;;;;;;;5.60;2.10;;;19.10;99.90;;;;;;4917761;29;20506;-68
2022/06/07 07:56:58;;;;;;;2.07;1.97;;;19.10;99.90;;;;;;4913660;29;20874;-68
2022/06/07 07:59:26;;;;;;;2.97;2.80;;;19.00;99.90;;;;;;4921811;29;20493;-68
2022/06/07 08:01:53;;;;;;;3.27;2.43;;;18.90;99.90;;;;;;4913021;29;20469;-68
2022/06/07 08:04:20;;;;;;;2.27;2.07;;;18.90;99.90;;;;;;4915432;29;20819;-69
2022/06/07 08:06:47;;;;;;;2.40;2.40;;;18.90;99.90;;;;;;4917225;29;20471;-68
2022/06/07 08:09:14;;;;;;;2.50;2.40;;;18.80;99.90;;;;;;4923350;29;20467;-68
2022/06/07 08:11:42;;;;;;;2.60;2.53;;;18.80;99.90;;;;;;4929188;29;20544;-68
2022/06/07 08:14:13;;;;;;;2.60;2.50;;;18.60;99.90;;;;;;4920552;29;20570;-68
2022/06/07 08:16:41;;;;;;;2.53;2.40;;;18.50;99.90;;;;;;4914128;29;20482;-69
2022/06/07 08:19:09;;;;;;;2.10;2.10;;;18.60;99.90;;;;;;4926613;29;20469;-69
2022/06/07 08:21:36;;;;;;;2.50;2.40;;;18.50;99.90;;;;;;4907876;29;20486;-68
2022/06/07 08:24:04;;;;;;;3.73;3.03;;;18.60;99.90;;;;;;4913754;29;20506;-68
2022/06/07 08:26:31;;;;;;;2.27;2.27;;;18.70;99.90;;;;;;4912687;29;20564;-72
2022/06/07 08:28:58;;;;;;;3.33;2.10;;;18.90;99.90;;;;;;4921357;29;20545;-69
2022/06/07 08:31:27;;;;;;;2.20;2.20;;;18.80;99.90;;;;;;4924091;29;20459;-73
2022/06/07 08:39:26;;;;;;;2.23;2.23;;;18.80;99.90;;;;;;4907848;29;20465;-70
2022/06/07 08:41:55;;;;;;;2.00;1.90;;;18.90;99.90;;;;;;4917138;29;20461;-71
2022/06/07 08:44:26;;;;;;;2.23;2.13;;;18.90;99.90;;;;;;4920435;29;20462;-70
2022/06/07 08:46:55;;;;;;;2.60;2.10;;;19.00;99.90;;;;;;4913845;29;20466;-71
2022/06/07 08:49:24;;;;;;;1.93;1.93;;;19.10;99.90;;;;;;4911432;29;20482;-70
2022/06/07 08:51:56;;;;;;;2.07;2.07;;;19.20;99.90;;;;;;4925323;29;20486;-71
2022/06/07 08:54:30;;;;;;;2.10;2.00;;;19.50;99.90;;;;;;4915771;29;20538;-71
2022/06/07 08:57:02;;;;;;;1.90;1.80;;;19.70;99.90;;;;;;4909452;29;20998;-71
2022/06/07 08:59:29;;;;;;;1.97;1.87;;;19.70;99.90;;;;;;4917522;29;20865;-73
2022/06/07 09:02:03;;;;;;;3.60;2.37;;;19.70;99.90;;;;;;4923859;29;20499;-71
2022/06/07 09:04:33;;;;;;;2.17;2.07;;;19.90;99.90;;;;;;4934583;29;20991;-70
2022/06/07 09:07:05;;;;;;;2.10;2.00;;;20.20;99.90;;;;;;4936250;29;20492;-70
2022/06/07 09:12:23;;;;;;;1.93;1.93;;;20.40;99.90;;;;;;4932830;29;20569;-71
2022/06/07 09:14:52;;;;;;;1.80;1.80;;;20.50;99.90;;;;;;4928741;29;20462;-70
2022/06/07 09:17:22;;;;;;;1.90;1.90;;;20.40;99.90;;;;;;4916981;29;20462;-70
2022/06/07 09:19:50;;;;;;;2.07;1.97;;;20.50;99.90;;;;;;4916479;29;20938;-70
2022/06/07 09:22:23;;;;;;;1.83;1.83;;;20.40;99.90;;;;;;4917496;29;20472;-70
2022/06/07 09:24:56;;;;;;;2.37;2.17;;;20.50;99.90;;;;;;4918611;29;20469;-71
2022/06/07 09:27:26;;;;;;;2.17;2.17;;;20.30;99.90;;;;;;4928569;29;20471;-72
2022/06/07 09:29:55;;;;;;;1.83;1.83;;;20.20;99.90;;;;;;4919733;29;20479;-71
2022/06/07 09:32:26;;;;;;;2.10;2.10;;;20.30;99.90;;;;;;4930861;29;20487;-70
2022/06/07 09:34:59;;;;;;;1.97;1.87;;;20.50;99.90;;;;;;4927897;29;20461;-70
2022/06/07 09:37:38;;;;;;;2.03;1.93;;;20.50;99.90;;;;;;4935295;29;20496;-71
2022/06/07 09:40:23;;;;;;;1.50;1.50;;;20.60;99.90;;;;;;4934897;29;20493;-70
2022/06/07 09:42:54;;;;;;;1.80;1.80;;;20.60;99.90;;;;;;4913833;29;20485;-70
2022/06/07 09:45:27;;;;;;;2.07;2.00;;;20.60;99.90;;;;;;4916900;29;20466;-69
2022/06/07 09:47:54;;;;;;;9.60;2.17;;;20.70;99.90;;;;;;4917126;29;20554;-70
2022/06/07 09:50:25;;;;;;;2.00;1.90;;;20.70;99.90;;;;;;4915692;29;20497;-69
2022/06/07 09:52:55;;;;;;;1.70;1.60;;;20.80;99.90;;;;;;4915875;29;21026;-70
2022/06/07 09:55:27;;;;;;;1.40;1.40;;;20.80;99.90;;;;;;4916092;29;20462;-70
2022/06/07 09:58:06;;;;;;;1.70;1.70;;;20.90;99.90;;;;;;4916245;29;20875;-71
2022/06/07 10:00:40;;;;;;;3.13;2.23;;;21.00;99.90;;;;;;4915843;29;20586;-70
2022/06/07 10:03:31;;;;;;;1.90;1.90;;;20.90;99.90;;;;;;4915562;29;20466;-70
2022/06/07 10:06:21;;;;;;;1.97;1.97;;;20.70;99.90;;;;;;4916277;29;20463;-70
2022/06/07 10:09:07;;;;;;;1.77;1.77;;;20.40;99.90;;;;;;4915739;29;20805;-71
2022/06/07 10:11:40;;;;;;;1.90;1.90;;;20.50;99.90;;;;;;4896386;29;20467;-70
2022/06/07 10:14:21;;;;;;;1.90;1.90;;;20.70;99.90;;;;;;4910193;29;20496;-69
2022/06/07 10:16:59;;;;;;;2.00;1.90;;;21.00;99.90;;;;;;4920754;29;20465;-69
2022/06/07 10:19:35;;;;;;;2.40;2.30;;;21.30;99.90;;;;;;4934692;29;20492;-69
2022/06/07 10:22:19;;;;;;;2.10;2.10;;;21.40;99.90;;;;;;4935366;29;20479;-68
2022/06/07 10:24:58;;;;;;;2.13;2.00;;;21.40;99.90;;;;;;4921231;29;20841;-69
2022/06/07 10:27:33;;;;;;;2.43;2.20;;;21.20;99.90;;;;;;4915948;29;20489;-69
2022/06/07 10:30:15;;;;;;;2.07;2.07;;;21.00;99.90;;;;;;4917033;29;20486;-70
2022/06/07 10:32:54;;;;;;;1.87;1.80;;;20.80;99.90;;;;;;4916975;29;20486;-70
2022/06/07 10:35:27;;;;;;;2.00;1.90;;;20.60;99.90;;;;;;4916202;29;20822;-70
2022/06/07 10:38:07;;;;;;;1.77;1.77;;;20.30;99.90;;;;;;4915260;29;20587;-70
2022/06/07 10:40:42;;;;;;;2.17;2.00;;;19.90;99.90;;;;;;4915947;29;20501;-70
2022/06/07 10:43:16;;;;;;;2.00;2.00;;;19.70;99.90;;;;;;4915680;29;20469;-70
2022/06/07 10:45:45;;;;;;;2.30;2.30;;;19.60;99.90;;;;;;4915796;29;20488;-69
2022/06/07 10:48:18;;;;;;;2.70;2.60;;;19.60;99.90;;;;;;4915614;29;20466;-70
2022/06/07 10:50:50;;;;;;;2.73;2.60;;;19.60;99.90;;;;;;4914933;29;20509;-69
2022/06/07 10:53:22;;;;;;;2.23;2.23;;;19.60;99.90;;;;;;4914675;29;20482;-69
2022/06/07 10:55:53;;;;;;;3.10;2.87;;;19.70;99.90;;;;;;4915213;29;20481;-68
2022/06/07 10:58:36;;;;;;;2.73;2.73;;;19.90;99.90;;;;;;4915316;29;20852;-69
2022/06/07 11:01:15;;;;;;;3.60;3.30;;;20.10;99.90;;;;;;4914597;29;20527;-69
2022/06/07 11:03:59;;;;;;;2.43;2.43;;;20.30;99.90;;;;;;4914805;29;20498;-68
2022/06/07 11:09:29;;;;;;;2.67;2.57;;;20.50;99.90;;;;;;4914521;29;20474;-68
2022/06/07 11:11:59;;;;;;;2.60;2.60;;;20.70;99.90;;;;;;4914703;29;20587;-69
2022/06/07 11:14:38;;;;;;;3.00;2.80;;;20.90;99.90;;;;;;4914322;29;20814;-68
2022/06/07 11:17:22;;;;;;;3.47;3.27;;;21.10;99.90;;;;;;4914177;29;20493;-68
2022/06/07 11:19:50;;;;;;;3.17;2.97;;;21.10;99.90;;;;;;4914688;29;20509;-68
2022/06/07 11:22:19;;;;;;;2.70;2.70;;;21.20;99.90;;;;;;4914500;29;20477;-70
2022/06/07 11:24:59;;;;;;;2.80;2.70;;;21.20;99.90;;;;;;4914992;29;20809;-69
2022/06/07 11:27:27;;;;;;;3.17;3.07;;;21.00;99.90;;;;;;4915542;29;20466;-69
2022/06/07 11:30:21;;;;;;;3.67;3.57;;;20.80;99.90;;;;;;4914592;29;20921;-69
2022/06/07 11:32:55;;;;;;;3.77;3.60;;;20.80;99.90;;;;;;4914577;29;20497;-67
2022/06/07 11:35:48;;;;;;;3.90;3.60;;;21.10;99.90;;;;;;4914678;29;20557;-69
2022/06/07 11:38:28;;;;;;;3.70;3.60;;;21.20;99.90;;;;;;4914448;29;20849;-67
2022/06/07 11:43:51;;;;;;;4.30;4.00;;;21.40;99.90;;;;;;4914420;29;20450;-69
2022/06/07 11:46:24;;;;;;;3.20;3.20;;;21.40;99.90;;;;;;4915144;29;20841;-69
2022/06/07 11:48:50;;;;;;;3.93;3.60;;;21.50;99.90;;;;;;4915109;29;20458;-69
2022/06/07 11:51:20;;;;;;;3.77;3.67;;;21.70;99.90;;;;;;4914331;29;20493;-68
2022/06/07 11:53:56;;;;;;;3.13;3.13;;;21.60;99.90;;;;;;4914524;29;20495;-69
2022/06/07 11:56:40;;;;;;;3.57;3.20;;;21.50;99.90;;;;;;4914625;29;20460;-68
2022/06/07 11:59:38;;;;;;;3.60;3.40;;;21.40;99.90;;;;;;4909309;29;20475;-69
2022/06/07 12:02:28;;;;;;;3.10;3.10;;;21.30;99.90;;;;;;4909314;29;20478;-69
2022/06/07 12:05:00;;;;;;;3.47;3.30;;;21.30;99.90;;;;;;4910554;29;20830;-68
2022/06/07 12:07:34;;;;;;;3.17;3.07;;;21.40;99.90;;;;;;4914316;29;20481;-68
2022/06/07 12:10:19;;;;;;;3.50;3.23;;;21.50;99.90;;;;;;4913787;29;20490;-69
2022/06/07 12:12:51;;;;;;;3.17;2.97;;;21.50;99.90;;;;;;4914390;29;20461;-69
2022/06/07 12:15:20;;;;;;;3.53;3.33;;;21.50;99.90;;;;;;4914718;29;20467;-69
2022/06/07 12:17:56;;;;;;;3.93;3.73;;;21.50;99.90;;;;;;4914048;29;20869;-69
2022/06/07 12:20:27;;;;;;;4.33;4.13;;;21.50;99.90;;;;;;4913527;29;20498;-71
2022/06/07 12:22:57;;;;;;;3.87;3.77;;;21.50;99.90;;;;;;4915367;29;20466;-70
2022/06/07 12:25:25;;;;;;;3.50;3.40;;;21.60;99.90;;;;;;4932128;29;20600;-70
2022/06/07 12:27:56;;;;;;;3.27;3.13;;;21.60;99.90;;;;;;4937234;29;20806;-70
2022/06/07 12:30:28;;;;;;;3.30;3.13;;;21.50;99.90;;;;;;4927174;29;20483;-70
2022/06/07 12:32:56;;;;;;;3.80;3.27;;;21.70;99.90;;;;;;4917763;29;20497;-70
2022/06/07 12:35:26;;;;;;;3.60;3.50;;;21.90;99.90;;;;;;4917719;29;20477;-70
2022/06/07 12:37:56;;;;;;;3.20;3.10;;;22.00;99.90;;;;;;4917509;29;20466;-70
2022/06/07 12:40:31;;;;;;;3.50;3.37;;;21.90;99.90;;;;;;4917157;29;20486;-70
2022/06/07 12:43:00;;;;;;;3.53;3.07;;;22.00;99.90;;;;;;4917949;29;20462;-69
2022/06/07 12:45:32;;;;;;;3.43;3.17;;;22.10;99.90;;;;;;4917566;29;20466;-69
2022/06/07 12:48:02;;;;;;;2.93;2.83;;;22.00;99.90;;;;;;4917583;29;20470;-70
2022/06/07 12:50:32;;;;;;;3.10;3.00;;;21.90;99.90;;;;;;4917058;29;21149;-70
2022/06/07 12:53:00;;;;;;;3.30;3.20;;;21.90;99.90;;;;;;4917311;29;20786;-69
2022/06/07 12:55:29;;;;;;;3.00;3.00;;;22.00;99.90;;;;;;4917130;29;20467;-67
2022/06/07 12:58:00;;;;;;;2.97;2.90;;;21.90;99.90;;;;;;4917177;29;20462;-69
2022/06/07 13:00:29;;;;;;;3.20;2.87;;;21.90;99.90;;;;;;4917013;29;20856;-67
2022/06/07 13:03:01;;;;;;;2.80;2.80;;;21.90;99.90;;;;;;4917316;29;20470;-68
2022/06/07 13:05:31;;;;;;;3.27;3.13;;;22.00;99.90;;;;;;4917724;29;20537;-68
2022/06/07 13:08:01;;;;;;;3.23;3.13;;;21.90;99.90;;;;;;4917091;29;20471;-68
2022/06/07 13:10:32;;;;;;;2.63;2.60;;;21.80;99.90;;;;;;4915426;29;20896;-70
2022/06/07 13:13:03;;;;;;;2.63;2.63;;;22.00;99.90;;;;;;4917093;29;20473;-68
2022/06/07 13:15:33;;;;;;;2.40;2.33;;;22.20;99.90;;;;;;4917415;29;20469;-68
2022/06/07 13:18:04;;;;;;;2.53;2.43;;;22.20;99.90;;;;;;4917442;29;20477;-69
2022/06/07 13:20:35;;;;;;;2.40;2.40;;;22.40;99.90;;;;;;4916894;29;20876;-69
2022/06/07 13:23:10;;;;;;;2.80;2.70;;;22.40;99.90;;;;;;4916913;29;20523;-71
2022/06/07 13:25:37;;;;;;;2.50;2.50;;;22.40;99.90;;;;;;4934504;29;20473;-70
2022/06/07 13:28:07;;;;;;;2.50;2.40;;;22.40;99.90;;;;;;4932906;29;20477;-68
2022/06/07 13:30:41;;;;;;;2.90;2.80;;;22.40;99.90;;;;;;4929523;29;20509;-69
2022/06/07 13:33:27;;;;;;;2.90;2.90;;;22.40;99.90;;;;;;4918411;29;20517;-69
2022/06/07 13:35:57;;;;;;;2.73;2.73;;;22.30;99.90;;;;;;4917224;29;20473;-69
2022/06/07 13:38:30;;;;;;;2.70;2.60;;;22.10;99.90;;;;;;4916168;29;20473;-69
2022/06/07 13:41:18;;;;;;;3.17;3.07;;;21.90;99.90;;;;;;4915729;29;20487;-69
2022/06/07 13:43:55;;;;;;;2.40;2.40;;;21.80;99.90;;;;;;4916800;29;20801;-69
2022/06/07 13:46:28;;;;;;;3.07;2.87;;;22.10;99.90;;;;;;4916924;29;21111;-69
2022/06/07 13:55:12;;;;;;;2.70;2.70;;;22.30;99.90;;;;;;4916160;29;20908;-68
2022/06/07 13:57:39;;;;;;;3.10;3.10;;;22.40;99.90;;;;;;4916484;29;20471;-68
2022/06/07 14:00:08;;;;;;;3.00;3.00;;;22.30;99.90;;;;;;4915839;29;20513;-69
2022/06/07 14:02:38;;;;;;;2.70;2.70;;;22.20;99.90;;;;;;4916359;29;20467;-68
2022/06/07 14:05:13;;;;;;;3.30;3.20;;;22.20;99.90;;;;;;4916767;29;20487;-68
2022/06/07 14:07:39;;;;;;;3.37;3.20;;;22.30;99.90;;;;;;4916289;29;20513;-69
2022/06/07 14:10:07;;;;;;;3.43;3.33;;;22.30;99.90;;;;;;4915230;29;20490;-69
2022/06/07 14:12:34;;;;;;;3.83;3.73;;;22.30;99.90;;;;;;4916995;29;20470;-67
2022/06/07 14:15:01;;;;;;;2.90;2.80;;;22.20;99.90;;;;;;4916707;29;20602;-69
2022/06/07 14:17:29;;;;;;;3.90;3.80;;;22.20;99.90;;;;;;4916257;29;20466;-67
2022/06/07 14:19:57;;;;;;;3.80;3.50;;;22.20;99.90;;;;;;4915970;29;20498;-68
2022/06/07 14:22:26;;;;;;;3.43;3.13;;;22.10;99.90;;;;;;4916283;29;20565;-67
2022/06/07 14:24:53;;;;;;;3.93;3.73;;;21.90;99.90;;;;;;4915959;29;20470;-71
2022/06/07 14:27:23;;;;;;;4.30;4.00;;;22.00;99.90;;;;;;4916045;29;20480;-69
2022/06/07 14:29:50;;;;;;;4.10;3.90;;;22.10;99.90;;;;;;4922771;29;20486;-69
2022/06/07 14:32:19;;;;;;;5.00;4.60;;;22.10;99.90;;;;;;4915408;29;20505;-68
2022/06/07 14:34:48;;;;;;;4.00;3.83;;;21.90;99.90;;;;;;4916195;29;20636;-70
2022/06/07 14:37:17;;;;;;;4.70;4.50;;;21.90;99.90;;;;;;4915983;29;20557;-70
2022/06/07 14:39:44;;;;;;;3.90;3.60;;;22.00;99.90;;;;;;4915496;29;20514;-70
2022/06/07 14:42:12;;;;;;;3.50;3.30;;;22.10;99.90;;;;;;4915806;29;20468;-70
2022/06/07 14:44:40;;;;;;;3.37;3.33;;;22.10;99.90;;;;;;4915995;29;20466;-69
2022/06/07 14:47:15;;;;;;;4.60;4.30;;;22.30;99.90;;;;;;4915717;29;20470;-70
2022/06/07 14:49:41;;;;;;;3.63;3.33;;;22.40;99.90;;;;;;4915585;29;20489;-70
2022/06/07 14:52:15;;;;;;;3.67;3.47;;;22.60;99.90;;;;;;4915728;29;20481;-69
2022/06/07 14:54:42;;;;;;;3.73;3.37;;;22.60;99.90;;;;;;4915739;29;20479;-70
2022/06/07 14:57:20;;;;;;;3.60;3.50;;;22.60;99.90;;;;;;4915655;29;20466;-69
2022/06/07 14:59:47;;;;;;;4.37;3.97;;;22.40;99.90;;;;;;4915616;29;20851;-69
2022/06/07 15:02:21;;;;;;;3.77;3.67;;;22.30;99.90;;;;;;4915101;29;20471;-69
2022/06/07 15:04:54;;;;;;;4.40;4.20;;;22.30;99.90;;;;;;4915647;29;20450;-70
2022/06/07 15:07:25;;;;;;;3.97;3.87;;;22.50;99.90;;;;;;4915423;29;20467;-69
2022/06/07 15:09:53;;;;;;;4.70;4.50;;;22.50;99.90;;;;;;4915181;29;20486;-68
2022/06/07 15:12:20;;;;;;;4.97;4.77;;;22.40;99.90;;;;;;4915372;29;20470;-69
2022/06/07 15:14:47;;;;;;;4.73;4.47;;;22.10;99.90;;;;;;4915015;29;20482;-69
2022/06/07 15:17:17;;;;;;;4.40;4.20;;;21.90;99.90;;;;;;4915220;29;20466;-69
2022/06/07 15:19:44;;;;;;;4.27;4.17;;;21.80;99.90;;;;;;4914957;29;20506;-69
2022/06/07 15:22:13;;;;;;;4.47;4.37;;;21.90;99.90;;;;;;4915293;29;20802;-69
2022/06/07 15:24:41;;;;;;;5.90;5.50;;;22.20;99.90;;;;;;4915480;29;20473;-69
2022/06/07 15:27:09;;;;;;;4.80;4.60;;;22.40;99.90;;;;;;4915411;29;20470;-69
2022/06/07 15:29:52;;;;;;;5.67;5.47;;;22.60;99.90;;;;;;4915059;29;20585;-69
2022/06/07 15:32:22;;;;;;;4.83;4.60;;;22.40;99.90;;;;;;4914934;29;20454;-69
2022/06/07 15:34:53;;;;;;;4.87;4.63;;;22.20;99.90;;;;;;4914995;29;20827;-69
2022/06/07 15:37:20;;;;;;;4.60;4.40;;;22.00;99.90;;;;;;4915531;29;20467;-69
2022/06/07 15:39:48;;;;;;;5.23;5.03;;;22.00;99.90;;;;;;4925416;29;20490;-70
2022/06/07 15:45:00;;;;;;;4.53;4.43;;;22.20;99.90;;;;;;4932768;29;20481;-68
2022/06/07 15:47:27;;;;;;;4.40;4.20;;;22.30;99.90;;;;;;4924379;29;20466;-71
2022/06/07 15:49:53;;;;;;;3.93;3.83;;;22.40;99.90;;;;;;4917212;29;20496;-70
2022/06/07 15:52:20;;;;;;;3.70;3.60;;;22.50;99.90;;;;;;4924287;29;20475;-69
2022/06/07 15:54:48;;;;;;;4.20;4.10;;;22.70;99.90;;;;;;4919398;29;20488;-69
2022/06/07 15:57:15;;;;;;;4.43;4.23;;;22.80;99.90;;;;;;4926264;29;20555;-70
2022/06/07 15:59:41;;;;;;;5.97;5.67;;;22.70;99.90;;;;;;4910231;29;20497;-69
2022/06/07 16:02:09;;;;;;;4.50;4.40;;;22.60;99.90;;;;;;4911517;29;20471;-69
2022/06/07 16:04:36;;;;;;;4.53;4.43;;;22.50;99.90;;;;;;4920164;29;20202;-71
2022/06/07 16:07:03;;;;;;;4.87;4.67;;;22.40;99.90;;;;;;4924289;29;20470;-70
2022/06/07 16:09:29;;;;;;;5.23;5.03;;;22.20;99.90;;;;;;4920987;29;20490;-71
2022/06/07 16:11:57;;;;;;;5.33;5.03;;;22.10;99.90;;;;;;4916262;29;20485;-71
2022/06/07 16:14:24;;;;;;;4.50;4.40;;;22.00;99.90;;;;;;4931676;29;20519;-70
2022/06/07 16:16:51;;;;;;;4.50;4.40;;;22.00;99.90;;;;;;4926423;29;20504;-70
2022/06/07 16:19:18;;;;;;;4.80;4.50;;;22.10;99.90;;;;;;4920461;29;20469;-71
2022/06/07 16:24:11;;;;;;;4.13;4.03;;;22.20;99.90;;;;;;5003291;23;20511;-71
2022/06/07 16:26:38;;;;;;;5.37;4.90;;;22.10;99.90;;;;;;4971314;28;20972;-71
2022/06/07 16:34:49;;;;;;;4.23;4.13;;;22.30;99.90;;;;;;4915315;29;20474;-70
2022/06/07 16:37:16;;;;;;;5.30;5.00;;;22.40;99.90;;;;;;4919213;29;20482;-71
2022/06/07 16:39:42;;;;;;;4.87;4.63;;;22.20;99.90;;;;;;4939261;28;20805;-70
2022/06/07 16:42:09;;;;;;;5.07;4.90;;;21.90;99.90;;;;;;4952953;28;20487;-70
2022/06/07 16:44:37;;;;;;;4.53;4.33;;;21.80;99.90;;;;;;4960513;28;20840;-71
2022/06/07 16:47:05;;;;;;;4.60;4.50;;;21.80;99.90;;;;;;4963098;28;20917;-71
2022/06/07 16:49:34;;;;;;;5.40;5.10;;;21.90;99.90;;;;;;4967104;28;20495;-71
2022/06/07 16:52:03;;;;;;;4.00;3.90;;;22.10;99.90;;;;;;4966816;28;20464;-71
2022/06/07 16:54:31;;;;;;;4.07;3.97;;;22.30;99.90;;;;;;4953355;28;21033;-71
2022/06/07 16:57:00;;;;;;;4.80;4.43;;;22.40;99.90;;;;;;4977686;28;20463;-70
2022/06/07 16:59:28;;;;;;;4.17;4.00;;;22.30;99.90;;;;;;4963835;28;20555;-71
2022/06/07 17:01:56;;;;;;;4.00;3.90;;;22.20;99.90;;;;;;4952001;28;20549;-71
2022/06/07 17:04:23;;;;;;;4.70;4.50;;;22.20;99.90;;;;;;4963911;28;20887;-70
2022/06/07 17:06:50;;;;;;;4.10;3.90;;;22.30;99.90;;;;;;4956478;28;20476;-70
2022/06/07 17:09:19;;;;;;;5.33;5.00;;;22.20;99.90;;;;;;4953290;28;20475;-70
2022/06/07 17:11:45;;;;;;;4.40;4.10;;;22.20;99.90;;;;;;4957050;28;20486;-70
2022/06/07 17:14:13;;;;;;;4.30;4.13;;;22.20;99.90;;;;;;4963219;28;20619;-72
2022/06/07 17:16:42;;;;;;;4.80;4.50;;;22.10;99.90;;;;;;4985673;28;20529;-70
2022/06/07 17:19:12;;;;;;;4.80;4.60;;;22.10;99.90;;;;;;4981768;28;20579;-71
2022/06/07 17:21:39;;;;;;;5.60;5.30;;;21.90;99.90;;;;;;4975073;28;20875;-70
2022/06/07 17:24:07;;;;;;;4.87;4.60;;;21.70;99.90;;;;;;4981803;28;20570;-70
2022/06/07 17:26:36;;;;;;;5.57;5.10;;;21.60;99.90;;;;;;4972061;28;20834;-70
2022/06/07 17:29:02;;;;;;;5.30;4.80;;;21.40;99.90;;;;;;4979761;28;20538;-70
2022/06/07 17:31:29;;;;;;;5.40;5.10;;;21.30;99.90;;;;;;4970368;28;20459;-71
2022/06/07 17:33:56;;;;;;;5.53;5.17;;;21.10;99.90;;;;;;4971341;28;20489;-71
2022/06/07 17:36:24;;;;;;;5.53;5.07;;;20.90;99.90;;;;;;4960145;28;20492;-70
2022/06/07 17:38:53;;;;;;;5.97;5.47;;;20.80;99.90;;;;;;4975365;28;20474;-70